Reno Tahoe International Airport
KRNO : now visible

Airfield :











YOU CAN JOIN US ON...

 
LOGIN :

Register | Disclaimer

   EN    FR    IT 

 









Legend :    VFR   Marginal VFR   IFR   Intensive IFR   Very Intensive IFR
Visi :
Ceiling :
>= 8 km
>= 3000ft
5 to 8 km
1000 to 3000 ft
1500m to 5 km
500 to 1000 ft
800 to 1500m
200 to 500 ft
< 800m
< 200 ft
Symbols :   Thunderstorms  Fog  Heavy snow  Heavy precipitations  Wind > 20 kt






- Airport Elevation : 4415 ft
- IATA code : RNO


KRNO - Reno Tahoe International

CURRENT METAR :
  • 231655Z 17003KT 10SM CLR 24/03 A3004 RMK AO2 SLP112 T02390028

EXPIRED METARs :
  • 231555Z 00000KT 10SM CLR 22/04 A3005 RMK AO2 SLP117 T02220044
  • 231455Z 00000KT 10SM FEW100 19/04 A3005 RMK AO2 SLP120 T01940044 53008

TAF KRNO
Valid from the 23 at 12:00 until the 24 at 12:00 UTC


231120Z 2312/2412 VRB04KT P6SM SKC
FM231900 16008KT P6SM FEW090
FM232100 17010KT P6SM SCT090 BKN140
FM232300 28014G22KT P6SM BKN090 BKN120
FM240500 VRB04KT P6SM BKN110
KZOA FIR / North America



MET'MAP, your aeronautical weather chart ! - Copyright ORBIFLY December 2007 - Disclaimer

ORBIFLY MET'MAP TEAM :

Programming & Development : Alexandra Zaïnal
Concept & original design : Baudouin d'Aumeries
Assistance for programming : Marc-Olivier Méhu
Technical & hardware support : Manuel Goepfert

Contact : metmap@orbifly.com




SOURCES & CREDITS :

   NOAA       Earth
Advisory